createdAt,value
2019-01-24T00:00:17.122Z,83.12
2019-01-24T00:02:45.740Z,84.65
2019-01-24T00:05:14.174Z,84.85
2019-01-24T00:07:42.684Z,85.70
2019-01-24T00:10:12.126Z,85.50
2019-01-24T00:12:40.595Z,80.85
2019-01-24T00:15:10.366Z,95.40
2019-01-24T00:17:38.847Z,92.72
2019-01-24T00:20:11.631Z,75.52
2019-01-24T00:22:40.211Z,82.10
2019-01-24T00:25:10.162Z,92.78
2019-01-24T00:27:38.614Z,81.70
2019-01-24T00:30:11.291Z,72.67
2019-01-24T00:32:39.768Z,76.57
2019-01-24T00:35:09.301Z,81.50
2019-01-24T00:37:37.856Z,86.65
2019-01-24T00:40:13.862Z,77.65
2019-01-24T00:42:42.357Z,79.55
2019-01-24T00:45:10.980Z,75.52
2019-01-24T00:47:39.423Z,78.62
2019-01-24T00:50:09.389Z,87.10
2019-01-24T00:52:37.853Z,72.78
2019-01-24T00:55:07.874Z,83.25
2019-01-24T00:57:36.457Z,81.65
2019-01-24T01:00:06.372Z,89.85
2019-01-24T01:02:34.956Z,89.40
2019-01-24T01:05:04.638Z,89.85
2019-01-24T01:07:33.087Z,96.97
2019-01-24T01:10:01.539Z,89.65
2019-01-24T01:12:30.108Z,82.92
2019-01-24T01:14:58.682Z,88.55
2019-01-24T01:17:27.136Z,85.20
2019-01-24T01:19:55.757Z,87.47
2019-01-24T01:22:24.239Z,91.00
2019-01-24T01:24:57.288Z,100.25
2019-01-24T01:27:29.857Z,96.42
2019-01-24T01:29:59.439Z,95.35
2019-01-24T01:32:32.072Z,85.40
2019-01-24T01:35:00.569Z,88.10
2019-01-24T01:37:29.054Z,103.62
2019-01-24T01:39:57.596Z,105.95
2019-01-24T01:42:26.116Z,99.80
2019-01-24T01:44:54.591Z,99.35
2019-01-24T01:47:23.182Z,113.80
2019-01-24T01:49:51.635Z,99.00
2019-01-24T01:52:20.244Z,101.33
2019-01-24T01:54:48.690Z,99.30
2019-01-24T01:57:36.761Z,105.22
2019-01-24T02:00:06.782Z,109.95
2019-01-24T02:02:35.264Z,113.05
2019-01-24T02:05:05.485Z,113.97
2019-01-24T02:07:34.003Z,105.83
2019-01-24T02:10:02.462Z,106.78
2019-01-24T02:12:30.968Z,99.58
2019-01-24T02:14:59.419Z,98.67
2019-01-24T02:17:27.993Z,109.80
2019-01-24T02:19:57.171Z,122.85
2019-01-24T02:22:25.629Z,129.97
2019-01-24T02:24:54.156Z,103.72
2019-01-24T02:27:22.737Z,123.80
2019-01-24T02:29:51.218Z,104.05
2019-01-24T02:32:19.753Z,116.20
2019-01-24T02:34:49.742Z,111.95
2019-01-24T02:37:18.402Z,101.50
2019-01-24T02:39:46.886Z,108.27
2019-01-24T02:42:15.374Z,111.10
2019-01-24T02:44:43.845Z,116.53
2019-01-24T02:47:13.046Z,106.90
2019-01-24T02:49:41.627Z,101.75
2019-01-24T02:52:10.210Z,114.95
2019-01-24T02:54:38.690Z,112.83
2019-01-24T02:57:07.168Z,106.00
2019-01-24T02:59:35.653Z,101.70
2019-01-24T03:02:05.879Z,99.37
2019-01-24T03:04:34.460Z,99.10
2019-01-24T03:07:03.042Z,98.58
2019-01-24T03:09:50.806Z,107.20
2019-01-24T03:12:19.259Z,91.75
2019-01-24T03:14:47.733Z,85.67
2019-01-24T03:17:16.222Z,96.28
2019-01-24T03:19:44.699Z,97.30
2019-01-24T03:22:13.152Z,100.58
2019-01-24T03:24:41.661Z,98.03
2019-01-24T03:27:10.146Z,117.05
2019-01-24T03:29:38.646Z,96.72
2019-01-24T03:32:07.208Z,97.25
2019-01-24T03:34:35.698Z,95.42
2019-01-24T03:37:04.855Z,91.45
2019-01-24T03:39:33.367Z,99.47
2019-01-24T03:42:02.564Z,99.50
2019-01-24T03:44:30.964Z,87.53
2019-01-24T03:46:59.527Z,105.22
2019-01-24T03:49:28.017Z,94.00
2019-01-24T03:51:56.475Z,92.05
2019-01-24T03:54:25.074Z,100.53
2019-01-24T03:56:53.541Z,102.65
2019-01-24T03:59:22.001Z,89.10
2019-01-24T04:01:50.484Z,93.35
2019-01-24T04:04:19.099Z,88.17
2019-01-24T04:06:47.544Z,94.72
2019-01-24T04:09:16.001Z,83.40
2019-01-24T04:11:44.542Z,87.00
2019-01-24T04:14:12.957Z,92.92
2019-01-24T04:16:41.398Z,96.17
2019-01-24T04:19:09.887Z,96.37
2019-01-24T04:21:38.366Z,91.50
2019-01-24T04:24:06.805Z,100.95
2019-01-24T04:26:35.297Z,89.03
2019-01-24T04:29:03.808Z,118.33
2019-01-24T04:31:32.289Z,107.10
2019-01-24T04:34:00.801Z,99.90
2019-01-24T04:36:29.354Z,102.85
2019-01-24T04:38:57.818Z,95.57
2019-01-24T04:41:26.321Z,79.55
2019-01-24T04:43:54.775Z,95.15
2019-01-24T04:46:23.231Z,86.55
2019-01-24T04:48:51.735Z,90.17
2019-01-24T04:51:20.191Z,103.00
2019-01-24T04:53:48.645Z,94.75
2019-01-24T04:56:17.144Z,87.25
2019-01-24T04:58:45.601Z,94.42
2019-01-24T05:01:14.064Z,95.97
2019-01-24T05:03:42.612Z,96.55
2019-01-24T05:06:11.607Z,92.33
2019-01-24T05:08:40.119Z,87.67
2019-01-24T05:11:08.571Z,92.95
2019-01-24T05:13:37.014Z,86.53
2019-01-24T05:16:05.546Z,83.40
2019-01-24T05:18:33.974Z,112.70
2019-01-24T05:21:02.423Z,97.67
2019-01-24T05:23:30.946Z,103.72
2019-01-24T05:25:59.382Z,89.42
2019-01-24T05:28:27.839Z,94.80
2019-01-24T05:30:56.352Z,100.12
2019-01-24T05:33:24.826Z,92.15
2019-01-24T05:35:53.278Z,96.57
2019-01-24T05:38:21.792Z,98.30
2019-01-24T05:40:50.324Z,98.35
2019-01-24T05:43:18.815Z,91.25
2019-01-24T05:45:47.338Z,94.37
2019-01-24T05:48:15.922Z,96.75
2019-01-24T05:50:44.411Z,91.75
2019-01-24T05:53:12.880Z,95.77
2019-01-24T05:55:42.980Z,98.92
2019-01-24T05:58:11.674Z,95.45
2019-01-24T06:00:41.527Z,94.45
2019-01-24T06:03:10.083Z,94.10
2019-01-24T06:05:41.938Z,92.25
2019-01-24T06:08:08.627Z,93.27
2019-01-24T06:10:37.087Z,100.78
2019-01-24T06:13:05.591Z,96.08
2019-01-24T06:15:34.057Z,85.90
2019-01-24T06:18:02.608Z,99.65
2019-01-24T06:20:31.099Z,97.42
2019-01-24T06:22:59.673Z,101.62
2019-01-24T06:25:28.188Z,101.15
2019-01-24T06:27:56.640Z,87.45
2019-01-24T06:30:25.218Z,92.22
2019-01-24T06:32:53.694Z,94.28
2019-01-24T06:35:22.180Z,90.87
2019-01-24T06:37:50.652Z,95.10
2019-01-24T06:40:19.103Z,90.97
2019-01-24T06:42:47.623Z,101.53
2019-01-24T06:45:17.664Z,92.42
2019-01-24T06:47:46.224Z,101.75
2019-01-24T06:50:16.139Z,78.75
2019-01-24T06:52:44.679Z,90.40
2019-01-24T06:55:14.734Z,98.78
2019-01-24T06:57:43.191Z,87.97
2019-01-24T07:00:16.218Z,99.65
2019-01-24T07:02:44.679Z,94.35
2019-01-24T07:05:13.819Z,86.10
2019-01-24T07:07:42.367Z,86.80
2019-01-24T07:10:14.906Z,96.82
2019-01-24T07:12:43.938Z,125.82
2019-01-24T07:15:19.481Z,97.70
2019-01-24T07:17:47.935Z,95.62
2019-01-24T07:20:17.983Z,108.80
2019-01-24T07:22:46.488Z,94.10
2019-01-24T07:25:22.363Z,86.08
2019-01-24T07:27:50.848Z,85.40
2019-01-24T07:30:20.503Z,86.10
2019-01-24T07:32:49.791Z,88.20
2019-01-24T07:35:19.416Z,87.57
2019-01-24T07:37:48.819Z,92.05
2019-01-24T07:40:18.942Z,89.25
2019-01-24T07:42:48.140Z,98.87
2019-01-24T07:45:24.379Z,84.17
2019-01-24T07:47:52.831Z,79.35
2019-01-24T07:50:21.343Z,88.92
2019-01-24T07:52:50.868Z,80.45
2019-01-24T07:55:19.276Z,92.00
2019-01-24T07:58:07.034Z,109.92
2019-01-24T08:00:35.562Z,76.45
2019-01-24T08:03:04.859Z,91.10
2019-01-24T08:05:34.041Z,85.55
2019-01-24T08:08:02.487Z,82.97
2019-01-24T08:10:30.940Z,84.72
2019-01-24T08:12:59.439Z,79.67
2019-01-24T08:15:29.189Z,87.35
2019-01-24T08:17:58.000Z,88.65
2019-01-24T08:20:27.889Z,75.60
2019-01-24T08:22:56.399Z,82.33
2019-01-24T08:25:24.896Z,78.00
2019-01-24T08:27:53.461Z,81.08
2019-01-24T08:30:23.171Z,83.22
2019-01-24T08:32:52.291Z,76.40
2019-01-24T08:35:20.854Z,79.10
2019-01-24T08:37:49.434Z,84.90
2019-01-24T08:40:19.431Z,86.53
2019-01-24T08:42:47.927Z,76.65
2019-01-24T08:45:17.081Z,78.72
2019-01-24T08:47:45.535Z,80.83
2019-01-24T08:50:18.700Z,79.72
2019-01-24T08:52:47.879Z,73.72
2019-01-24T08:55:17.809Z,77.00
2019-01-24T08:57:46.303Z,75.30
2019-01-24T09:00:16.311Z,77.25
2019-01-24T09:02:44.791Z,78.30
2019-01-24T09:05:14.192Z,87.65
2019-01-24T09:07:42.676Z,74.75
2019-01-24T09:10:12.566Z,80.67
2019-01-24T09:12:41.066Z,79.92
2019-01-24T09:15:11.088Z,83.58
2019-01-24T09:17:39.538Z,76.45
2019-01-24T09:20:09.499Z,79.00
2019-01-24T09:22:37.950Z,73.47
2019-01-24T09:25:07.703Z,70.55
2019-01-24T09:27:36.260Z,76.02
2019-01-24T09:30:08.934Z,77.05
2019-01-24T09:32:37.431Z,72.37
2019-01-24T09:35:07.578Z,75.67
2019-01-24T09:37:36.031Z,75.75
2019-01-24T09:40:06.038Z,77.53
2019-01-24T09:42:34.452Z,71.57
2019-01-24T09:45:03.051Z,76.22
2019-01-24T09:47:31.507Z,74.03
2019-01-24T09:50:00.476Z,70.75
2019-01-24T09:52:29.468Z,66.25
2019-01-24T09:54:58.461Z,72.60
2019-01-24T09:57:27.455Z,65.75
2019-01-24T09:59:56.448Z,77.00
2019-01-24T10:02:25.340Z,74.90
2019-01-24T10:04:54.334Z,68.28
2019-01-24T10:07:23.324Z,69.00
2019-01-24T10:09:52.214Z,65.22
2019-01-24T10:12:21.107Z,77.17
2019-01-24T10:14:50.004Z,69.95
2019-01-24T10:17:18.890Z,66.15
2019-01-24T10:19:47.777Z,73.37
2019-01-24T10:22:16.252Z,70.95
2019-01-24T10:24:44.699Z,72.87
2019-01-24T10:27:32.468Z,66.05
2019-01-24T10:30:00.926Z,69.05
2019-01-24T10:32:29.371Z,68.47
2019-01-24T10:34:57.914Z,81.78
2019-01-24T10:37:26.328Z,78.20
2019-01-24T10:39:54.780Z,73.05
2019-01-24T10:42:23.358Z,78.40
2019-01-24T10:44:51.839Z,78.60
2019-01-24T10:47:20.278Z,72.85
2019-01-24T10:49:48.801Z,75.42
2019-01-24T10:52:18.692Z,75.28
2019-01-24T10:54:47.404Z,81.42
2019-01-24T10:57:15.931Z,74.72
2019-01-24T10:59:44.383Z,69.82
2019-01-24T11:02:12.947Z,79.82
2019-01-24T11:04:41.439Z,75.67
2019-01-24T11:07:09.913Z,84.90
2019-01-24T11:09:38.359Z,70.15
2019-01-24T11:12:06.871Z,75.42
2019-01-24T11:14:35.327Z,76.70
2019-01-24T11:17:03.835Z,71.97
2019-01-24T11:19:32.303Z,75.60
2019-01-24T11:22:00.728Z,69.62
2019-01-24T11:24:29.277Z,75.60
2019-01-24T11:26:57.758Z,70.75
2019-01-24T11:29:26.237Z,84.80
2019-01-24T11:31:54.823Z,72.72
2019-01-24T11:34:23.287Z,75.40
2019-01-24T11:36:56.978Z,75.35
2019-01-24T11:39:21.898Z,83.03
2019-01-24T11:41:50.386Z,76.00
2019-01-24T11:44:18.799Z,82.78
2019-01-24T11:46:47.758Z,78.35
2019-01-24T11:49:16.792Z,83.85
2019-01-24T11:51:45.647Z,75.15
2019-01-24T11:54:14.634Z,88.87
2019-01-24T11:56:43.628Z,84.40
2019-01-24T11:59:12.620Z,71.95
2019-01-24T12:01:41.512Z,81.08
2019-01-24T12:04:10.402Z,81.95
2019-01-24T12:06:39.292Z,74.12
2019-01-24T12:09:09.836Z,68.57
2019-01-24T12:11:38.815Z,77.75
2019-01-24T12:14:07.706Z,80.83
2019-01-24T12:16:36.699Z,67.15
2019-01-24T12:19:06.314Z,70.67
2019-01-24T12:21:35.197Z,75.00
2019-01-24T12:24:05.009Z,88.25
2019-01-24T12:26:33.901Z,76.28
2019-01-24T12:29:02.791Z,68.90
2019-01-24T12:31:31.374Z,71.25
2019-01-24T12:33:59.825Z,72.97
2019-01-24T12:36:28.275Z,82.53
2019-01-24T12:38:56.766Z,81.63
2019-01-24T12:41:25.299Z,75.25
2019-01-24T12:43:53.819Z,71.90
2019-01-24T12:46:22.363Z,71.95
2019-01-24T12:48:50.767Z,80.03
2019-01-24T12:51:19.222Z,77.55
2019-01-24T12:53:47.708Z,73.12
2019-01-24T12:56:16.185Z,78.28
2019-01-24T12:58:44.633Z,68.15
2019-01-24T13:01:13.131Z,65.30
2019-01-24T13:03:41.587Z,68.55
2019-01-24T13:06:10.110Z,67.32
2019-01-24T13:08:38.587Z,70.65
2019-01-24T13:11:07.044Z,65.30
2019-01-24T13:13:35.501Z,60.28
2019-01-24T13:16:03.998Z,65.60
2019-01-24T13:18:32.447Z,64.55
2019-01-24T13:21:00.995Z,58.10
2019-01-24T13:23:29.494Z,60.48
2019-01-24T13:25:58.060Z,63.10
2019-01-24T13:28:26.551Z,64.10
2019-01-24T13:30:55.019Z,64.37
2019-01-24T13:33:23.508Z,65.22
2019-01-24T13:35:51.968Z,65.95
2019-01-24T13:38:20.421Z,57.58
2019-01-24T13:40:48.923Z,62.38
2019-01-24T13:43:17.375Z,64.53
2019-01-24T13:45:45.909Z,58.10
2019-01-24T13:48:14.433Z,69.07
2019-01-24T13:50:42.973Z,57.55
2019-01-24T13:53:11.451Z,63.95
2019-01-24T13:55:40.038Z,60.90
2019-01-24T13:58:09.235Z,62.15
2019-01-24T14:00:37.663Z,60.95
2019-01-24T14:03:13.816Z,59.58
2019-01-24T14:05:42.270Z,54.08
2019-01-24T14:08:10.731Z,62.50
2019-01-24T14:10:39.221Z,63.05
2019-01-24T14:13:07.681Z,55.35
2019-01-24T14:15:36.183Z,61.05
2019-01-24T14:18:05.328Z,66.50
2019-01-24T14:20:33.859Z,57.50
2019-01-24T14:23:02.337Z,60.38
2019-01-24T14:25:30.924Z,58.33
2019-01-24T14:27:59.379Z,64.42
2019-01-24T14:30:28.828Z,59.67
2019-01-24T14:32:57.331Z,60.92
2019-01-24T14:35:25.784Z,66.53
2019-01-24T14:37:54.246Z,65.42
2019-01-24T14:40:22.738Z,65.22
2019-01-24T14:42:51.291Z,70.80
2019-01-24T14:45:27.346Z,65.72
2019-01-24T14:47:56.467Z,76.37
2019-01-24T14:50:26.618Z,60.50
2019-01-24T14:52:55.890Z,69.67
2019-01-24T14:55:24.376Z,62.80
2019-01-24T14:57:52.863Z,67.92
2019-01-24T15:00:28.279Z,71.87
2019-01-24T15:02:56.732Z,66.33
2019-01-24T15:05:25.259Z,71.62
2019-01-24T15:07:53.684Z,70.10
2019-01-24T15:10:22.936Z,69.85
2019-01-24T15:12:51.521Z,64.95
2019-01-24T15:15:21.749Z,67.62
2019-01-24T15:17:50.939Z,70.83
2019-01-24T15:20:20.920Z,72.82
2019-01-24T15:22:49.366Z,68.28
2019-01-24T15:25:19.126Z,68.62
2019-01-24T15:27:47.732Z,65.00
2019-01-24T15:30:17.750Z,63.58
2019-01-24T15:32:46.332Z,71.77
2019-01-24T15:35:15.224Z,69.05
2019-01-24T15:37:43.807Z,78.55
2019-01-24T15:40:19.636Z,71.25
2019-01-24T15:42:48.099Z,76.85
2019-01-24T15:45:17.748Z,77.05
2019-01-24T15:47:47.035Z,79.32
2019-01-24T15:50:16.989Z,87.90
2019-01-24T15:52:46.144Z,78.22
2019-01-24T15:55:14.741Z,86.95
2019-01-24T15:58:02.580Z,85.95
2019-01-24T16:00:32.905Z,103.05
2019-01-24T16:03:01.386Z,94.25
2019-01-24T16:05:29.811Z,80.05
2019-01-24T16:08:01.934Z,84.42
2019-01-24T16:10:28.403Z,81.32
2019-01-24T16:12:56.951Z,90.65
2019-01-24T16:15:30.127Z,89.28
2019-01-24T16:17:58.675Z,78.62
2019-01-24T16:20:28.024Z,76.33
2019-01-24T16:22:56.437Z,76.28
2019-01-24T16:25:26.367Z,73.62
2019-01-24T16:27:54.900Z,68.57
2019-01-24T16:30:24.795Z,80.72
2019-01-24T16:32:53.942Z,73.55
2019-01-24T16:35:22.494Z,75.67
2019-01-24T16:37:50.976Z,73.45
2019-01-24T16:40:21.242Z,73.42
2019-01-24T16:42:49.781Z,66.22
2019-01-24T16:45:19.898Z,70.72
2019-01-24T16:47:48.355Z,67.65
2019-01-24T16:50:17.929Z,68.87
2019-01-24T16:52:46.387Z,70.03
2019-01-24T16:55:16.282Z,77.67
2019-01-24T16:57:45.631Z,67.00
2019-01-24T17:00:18.332Z,75.20
2019-01-24T17:02:46.814Z,77.85
2019-01-24T17:05:15.327Z,75.52
2019-01-24T17:07:43.738Z,62.30
2019-01-24T17:10:13.722Z,76.07
2019-01-24T17:12:42.164Z,73.80
2019-01-24T17:15:12.413Z,71.82
2019-01-24T17:17:41.009Z,79.87
2019-01-24T17:20:16.760Z,80.90
2019-01-24T17:22:45.337Z,68.37
2019-01-24T17:25:14.544Z,73.87
2019-01-24T17:27:46.309Z,73.25
2019-01-24T17:30:14.580Z,72.80
2019-01-24T17:32:43.033Z,77.97
2019-01-24T17:35:11.539Z,72.70
2019-01-24T17:37:40.019Z,73.83
2019-01-24T17:40:15.892Z,83.95
2019-01-24T17:42:44.396Z,84.17
2019-01-24T17:45:14.323Z,73.57
2019-01-24T17:47:42.779Z,80.77
2019-01-24T17:50:12.972Z,81.22
2019-01-24T17:52:41.427Z,77.17
2019-01-24T17:55:14.236Z,75.95
2019-01-24T17:57:42.715Z,73.85
2019-01-24T18:00:16.834Z,75.57
2019-01-24T18:02:45.311Z,75.05
2019-01-24T18:05:13.945Z,68.00
2019-01-24T18:07:43.908Z,84.28
2019-01-24T18:10:14.138Z,78.65
2019-01-24T18:12:43.537Z,75.30
2019-01-24T18:15:13.655Z,78.62
2019-01-24T18:17:42.107Z,75.32
2019-01-24T18:20:18.191Z,77.27
2019-01-24T18:22:44.575Z,79.47
2019-01-24T18:25:13.522Z,76.00
2019-01-24T18:27:41.963Z,65.57
2019-01-24T18:30:12.160Z,74.60
2019-01-24T18:32:40.605Z,70.67
2019-01-24T18:35:09.115Z,78.47
2019-01-24T18:37:37.820Z,86.78
2019-01-24T18:40:07.736Z,87.42
2019-01-24T18:42:36.221Z,84.95
2019-01-24T18:45:06.254Z,80.72
2019-01-24T18:47:34.994Z,75.67
2019-01-24T18:50:04.280Z,84.90
2019-01-24T18:52:32.757Z,72.58
2019-01-24T18:55:01.377Z,73.25
2019-01-24T18:57:29.967Z,76.30
2019-01-24T18:59:58.424Z,75.40
2019-01-24T19:02:26.867Z,72.85
2019-01-24T19:04:55.355Z,72.17
2019-01-24T19:07:24.040Z,76.40
2019-01-24T19:09:52.489Z,69.35
2019-01-24T19:12:21.008Z,69.07
2019-01-24T19:14:49.510Z,72.65
2019-01-24T19:17:18.003Z,73.12
2019-01-24T19:19:46.452Z,71.45
2019-01-24T19:22:14.955Z,74.47
2019-01-24T19:24:43.386Z,71.33
2019-01-24T19:27:11.830Z,72.25
2019-01-24T19:29:40.325Z,75.28
2019-01-24T19:32:08.796Z,74.95
2019-01-24T19:34:37.414Z,84.75
2019-01-24T19:37:06.008Z,77.72
2019-01-24T19:39:34.900Z,75.72
2019-01-24T19:42:03.671Z,73.15
2019-01-24T19:44:32.151Z,74.03
2019-01-24T19:47:00.598Z,70.50
2019-01-24T19:49:29.043Z,60.58
2019-01-24T19:51:57.629Z,74.05
2019-01-24T19:54:26.211Z,65.22
2019-01-24T19:56:55.922Z,69.22
2019-01-24T19:59:24.786Z,70.60
2019-01-24T20:01:53.493Z,65.87
2019-01-24T20:04:21.939Z,77.55
2019-01-24T20:06:50.664Z,68.37
2019-01-24T20:09:19.351Z,71.20
2019-01-24T20:11:47.843Z,72.10
2019-01-24T20:14:16.344Z,70.67
2019-01-24T20:16:44.789Z,71.67
2019-01-24T20:19:13.492Z,74.15
2019-01-24T20:21:42.023Z,72.65
2019-01-24T20:24:10.476Z,71.07
2019-01-24T20:26:38.932Z,69.77
2019-01-24T20:29:07.449Z,70.32
2019-01-24T20:31:39.683Z,70.78
2019-01-24T20:34:08.155Z,72.45
2019-01-24T20:36:38.318Z,67.15
2019-01-24T20:39:07.907Z,63.05
2019-01-24T20:41:36.360Z,63.45
2019-01-24T20:44:04.843Z,68.45
2019-01-24T20:46:33.367Z,75.37
2019-01-24T20:49:01.820Z,65.35
2019-01-24T20:51:30.267Z,67.95
2019-01-24T20:53:58.906Z,62.43
2019-01-24T20:56:27.547Z,58.78
2019-01-24T20:58:56.007Z,64.37
2019-01-24T21:01:24.497Z,54.70
2019-01-24T21:03:55.374Z,57.70
2019-01-24T21:06:23.039Z,63.17
2019-01-24T21:08:51.530Z,58.48
2019-01-24T21:11:20.031Z,54.80
2019-01-24T21:13:48.448Z,64.00
2019-01-24T21:16:16.927Z,57.93
2019-01-24T21:18:45.380Z,60.83
2019-01-24T21:21:13.970Z,54.15
2019-01-24T21:23:42.420Z,61.92
2019-01-24T21:26:10.867Z,56.23
2019-01-24T21:28:39.356Z,62.03
2019-01-24T21:31:07.806Z,72.25
2019-01-24T21:33:36.267Z,64.47
2019-01-24T21:36:04.754Z,66.40
2019-01-24T21:38:33.304Z,64.10
2019-01-24T21:41:01.756Z,69.50
2019-01-24T21:43:30.440Z,66.62
2019-01-24T21:45:58.922Z,67.82
2019-01-24T21:48:27.611Z,70.65
2019-01-24T21:50:56.290Z,66.07
2019-01-24T21:53:24.702Z,64.27
2019-01-24T21:55:53.255Z,68.33
2019-01-24T21:58:21.748Z,67.22
2019-01-24T22:00:51.653Z,66.00
2019-01-24T22:03:20.747Z,67.30
2019-01-24T22:05:49.314Z,64.22
2019-01-24T22:08:18.016Z,66.00
2019-01-24T22:10:46.527Z,71.67
2019-01-24T22:13:14.976Z,66.97
2019-01-24T22:15:43.664Z,74.00
2019-01-24T22:18:12.248Z,70.28
2019-01-24T22:20:40.729Z,62.93
2019-01-24T22:23:09.158Z,70.03
2019-01-24T22:25:37.692Z,69.47
2019-01-24T22:28:06.992Z,72.53
2019-01-24T22:30:38.525Z,72.90
2019-01-24T22:33:07.167Z,67.97
2019-01-24T22:35:35.717Z,64.82
2019-01-24T22:38:05.310Z,73.62
2019-01-24T22:40:33.759Z,67.00
2019-01-24T22:43:02.208Z,62.88
2019-01-24T22:45:30.762Z,64.70
2019-01-24T22:47:59.255Z,70.00
2019-01-24T22:50:27.827Z,70.47
2019-01-24T22:52:56.314Z,71.75
2019-01-24T22:55:24.773Z,71.72
2019-01-24T22:57:53.277Z,71.50
2019-01-24T23:00:24.768Z,67.58
2019-01-24T23:02:53.305Z,71.40
2019-01-24T23:05:21.780Z,68.52
2019-01-24T23:07:50.266Z,68.15
2019-01-24T23:10:18.850Z,66.40
2019-01-24T23:12:47.638Z,73.85
2019-01-24T23:15:16.091Z,73.55
2019-01-24T23:17:44.538Z,70.37
2019-01-24T23:20:13.148Z,74.32
2019-01-24T23:22:41.597Z,77.37
2019-01-24T23:25:10.150Z,66.75
2019-01-24T23:27:38.730Z,68.42
2019-01-24T23:30:08.697Z,72.03
2019-01-24T23:32:37.228Z,75.45
2019-01-24T23:35:06.876Z,72.62
2019-01-24T23:37:35.321Z,75.78
2019-01-24T23:40:05.336Z,78.10
2019-01-24T23:42:33.856Z,75.00
2019-01-24T23:45:02.303Z,72.53
2019-01-24T23:47:30.879Z,73.67
2019-01-24T23:49:59.359Z,85.60
2019-01-24T23:52:27.841Z,70.60
2019-01-24T23:54:56.277Z,77.75
2019-01-24T23:57:24.763Z,72.30
2019-01-24T23:59:53.216Z,67.10
